Centennial Airport
KAPA : now visible

Airfield :











YOU CAN JOIN US ON...

 
LOGIN :

Register | Disclaimer

   EN    FR    IT 

 









Legend :    VFR   Marginal VFR   IFR   Intensive IFR   Very Intensive IFR
Visi :
Ceiling :
>= 8 km
>= 3000ft
5 to 8 km
1000 to 3000 ft
1500m to 5 km
500 to 1000 ft
800 to 1500m
200 to 500 ft
< 800m
< 200 ft
Symbols :   Thunderstorms  Fog  Heavy snow  Heavy precipitations  Wind > 20 kt






- Airport Elevation : 5885 ft


KAPA - Centennial

CURRENT METAR :
  • 261353Z 00000KT 1SM -SN OVC032 M13/M16 A3018 RMK AO2 SLP316 VIS 3/4V1 1/4 P0000 T11331161 $

EXPIRED METARs :
  • 261332Z 00000KT 3/4SM -SN OVC028 M13/M16 A3018 RMK AO2 P0000 T11331161 $
  • 261253Z 12005KT 3/4SM -SN BR OVC038 M14/M16 A3018 RMK AO2 SFC VIS 1 1/4 SLP315 P0000 T11391161 $
  • 261153Z 14005KT 3/4SM -SN BR OVC037 M14/M16 A3019 RMK AO2 SFC VIS 1 SLP320 P0001 60005 70015 T11391161 11133 21139 55004 $

TAF KAPA
Valid from the 26 at 12:00 until the 27 at 12:00 UTC


261124Z 2612/2712 11005KT 1 1/2SM -SN BR SCT015 OVC030
TEMPO 2612/2614 3/4SM -SN BR BKN012
FM261400 05007KT 3SM -SN BR OVC025
FM261600 12005KT P6SM SCT012 OVC020
FM261800 09005KT P6SM OVC030
FM262100 12005KT P6SM BKN035 BKN060
FM262300 15006KT P6SM SCT050 BKN090
FM270200 20007KT P6SM FEW100
KZDV FIR / North America



MET'MAP, your aeronautical weather chart ! - Copyright ORBIFLY December 2007 - Disclaimer

ORBIFLY MET'MAP TEAM :

Programming & Development : Alexandra Zaïnal
Concept & original design : Baudouin d'Aumeries
Assistance for programming : Marc-Olivier Méhu
Technical & hardware support : Manuel Goepfert

Contact : metmap@orbifly.com




SOURCES & CREDITS :

   NOAA       Earth
Advisory